Time;durP1;ratioP1;P1;durP2;ratioP2;P2;SDS_P1;SDS_P2;PMS_P1;PMS_P2;Temp;Humidity;BMP_temperature;BMP_pressure;BME280_temperature;BME280_humidity;BME280_pressure;Samples;Min_cycle;Max_cycle;Signal;HPM_P1;HPM_P2
2022/11/11 00:02:02;;;;;;;4.80;3.63;;;8.70;99.90;;;;;;5114423;28;20184;-74
2022/11/11 00:04:28;;;;;;;5.37;3.40;;;8.70;99.90;;;;;;5114471;28;20248;-73
2022/11/11 00:06:53;;;;;;;8.30;3.63;;;8.80;99.90;;;;;;5114833;28;20157;-74
2022/11/11 00:09:19;;;;;;;5.00;3.30;;;8.70;99.90;;;;;;5114642;28;20204;-75
2022/11/11 00:11:44;;;;;;;4.70;3.23;;;8.70;99.90;;;;;;5114733;28;20242;-74
2022/11/11 00:14:13;;;;;;;5.57;3.70;;;8.70;99.90;;;;;;5096142;28;20165;-73
2022/11/11 00:25:06;;;;;;;5.43;2.90;;;8.60;99.90;;;;;;5114798;28;20500;-75
2022/11/11 00:27:33;;;;;;;8.50;2.80;;;8.50;99.90;;;;;;5115735;28;20903;-74
2022/11/11 00:29:58;;;;;;;9.73;4.57;;;8.50;99.90;;;;;;5115208;28;20444;-74
2022/11/11 00:32:29;;;;;;;5.10;3.70;;;8.50;99.90;;;;;;5115151;28;20421;-74
2022/11/11 00:37:42;;;;;;;6.30;2.70;;;8.40;99.90;;;;;;5114606;28;20540;-75
2022/11/11 00:40:09;;;;;;;5.43;3.40;;;8.30;99.90;;;;;;5114088;28;20462;-75
2022/11/11 00:42:34;;;;;;;4.83;3.97;;;8.20;99.90;;;;;;5115421;28;20415;-74
2022/11/11 00:45:00;;;;;;;7.87;3.70;;;8.20;99.90;;;;;;5114254;28;20752;-74
2022/11/11 00:53:13;;;;;;;9.73;4.30;;;8.10;99.90;;;;;;5114446;28;20520;-74
2022/11/11 00:55:38;;;;;;;8.33;3.80;;;8.10;99.90;;;;;;5095500;28;20456;-75
2022/11/11 00:58:04;;;;;;;12.17;4.97;;;8.00;99.90;;;;;;5115357;28;20791;-74
2022/11/11 01:00:30;;;;;;;6.13;4.60;;;7.90;99.90;;;;;;5097141;28;20641;-75
2022/11/11 01:02:57;;;;;;;7.77;4.40;;;7.90;99.90;;;;;;5115467;28;20177;-74
2022/11/11 01:05:22;;;;;;;7.43;3.97;;;7.80;99.90;;;;;;5114615;28;20180;-75
2022/11/11 01:07:49;;;;;;;9.07;4.87;;;7.80;99.90;;;;;;5114936;28;20411;-74
2022/11/11 01:10:36;;;;;;;14.03;4.83;;;7.80;99.90;;;;;;5096654;28;20257;-74
2022/11/11 01:13:13;;;;;;;7.87;4.80;;;7.70;99.90;;;;;;5113112;28;20426;-74
2022/11/11 01:15:44;;;;;;;6.87;4.33;;;7.70;99.90;;;;;;5095852;28;20415;-74
2022/11/11 01:18:12;;;;;;;6.77;4.97;;;7.60;99.90;;;;;;5112890;28;20545;-74
2022/11/11 01:20:38;;;;;;;10.30;5.53;;;7.60;99.90;;;;;;5113192;28;20434;-75
2022/11/11 01:23:05;;;;;;;7.37;5.33;;;7.50;99.90;;;;;;5113328;28;20437;-74
2022/11/11 01:25:34;;;;;;;16.40;5.10;;;7.50;99.90;;;;;;5112889;28;20520;-74
2022/11/11 01:28:01;;;;;;;8.20;5.03;;;7.50;99.90;;;;;;5112904;28;20899;-74
2022/11/11 01:30:27;;;;;;;6.40;4.80;;;7.40;99.90;;;;;;5113459;28;20450;-74
2022/11/11 01:32:52;;;;;;;9.70;5.90;;;7.40;99.90;;;;;;5113870;28;20456;-74
2022/11/11 01:35:18;;;;;;;5.80;4.03;;;7.40;99.90;;;;;;5111815;28;20184;-74
2022/11/11 01:37:43;;;;;;;11.00;6.00;;;7.30;99.90;;;;;;5113198;28;20180;-74
2022/11/11 01:40:09;;;;;;;11.67;6.47;;;7.30;99.90;;;;;;5112794;28;20201;-73
2022/11/11 01:42:49;;;;;;;8.83;5.10;;;7.20;99.90;;;;;;5113409;28;20588;-74
2022/11/11 01:45:54;;;;;;;6.33;5.10;;;7.30;99.90;;;;;;5110892;28;20421;-74
2022/11/11 01:51:35;;;;;;;7.87;5.60;;;7.20;99.90;;;;;;5115929;28;20508;-74
2022/11/11 01:54:05;;;;;;;11.53;5.93;;;7.20;99.90;;;;;;5115077;28;20767;-74
2022/11/11 01:56:31;;;;;;;8.80;6.00;;;7.10;99.90;;;;;;5113463;28;20832;-74
2022/11/11 01:59:02;;;;;;;10.40;5.37;;;7.20;99.90;;;;;;5111856;28;20482;-74
2022/11/11 02:01:27;;;;;;;8.70;5.50;;;7.10;99.90;;;;;;5112669;28;20426;-73
2022/11/11 02:06:40;;;;;;;10.53;5.40;;;7.10;99.90;;;;;;5111849;28;20711;-74
2022/11/11 02:09:07;;;;;;;7.33;5.40;;;7.10;99.90;;;;;;5110974;28;20460;-74
2022/11/11 02:14:35;;;;;;;5.93;4.90;;;7.10;99.90;;;;;;5112890;28;20429;-73
2022/11/11 02:17:04;;;;;;;9.30;5.77;;;7.10;99.90;;;;;;5112729;28;20547;-74
2022/11/11 02:19:57;;;;;;;11.50;6.23;;;7.10;99.90;;;;;;5112336;28;20545;-74
2022/11/11 02:22:44;;;;;;;7.57;5.20;;;7.00;99.90;;;;;;5105433;28;20509;-74
2022/11/11 02:25:15;;;;;;;14.03;6.53;;;7.00;99.90;;;;;;5112746;28;20450;-74
2022/11/11 02:27:44;;;;;;;9.30;6.27;;;7.00;99.90;;;;;;5111400;28;20419;-74
2022/11/11 02:30:14;;;;;;;11.10;6.00;;;7.00;99.90;;;;;;5112168;28;20474;-74
2022/11/11 02:32:42;;;;;;;8.57;5.40;;;7.00;99.90;;;;;;5109185;28;20846;-75
2022/11/11 02:35:15;;;;;;;8.57;4.67;;;7.00;99.90;;;;;;5111888;28;20421;-75
2022/11/11 02:37:44;;;;;;;7.77;5.60;;;6.90;99.90;;;;;;5110928;28;20426;-74
2022/11/11 02:40:15;;;;;;;13.83;5.83;;;6.90;99.90;;;;;;5111144;28;20466;-73
2022/11/11 02:42:40;;;;;;;8.87;5.90;;;6.80;99.90;;;;;;5110529;28;20418;-75
2022/11/11 02:45:06;;;;;;;10.20;5.53;;;6.80;99.90;;;;;;5111963;28;20410;-75
2022/11/11 02:47:32;;;;;;;7.30;4.83;;;6.80;99.90;;;;;;5112060;28;20265;-74
2022/11/11 02:49:57;;;;;;;9.77;4.40;;;6.70;99.90;;;;;;5111580;28;20422;-74
2022/11/11 02:52:23;;;;;;;13.17;5.53;;;6.70;99.90;;;;;;5112241;28;20822;-74
2022/11/11 02:54:49;;;;;;;10.43;5.90;;;6.60;99.90;;;;;;5111908;28;20180;-74
2022/11/11 02:57:15;;;;;;;8.07;4.60;;;6.60;99.90;;;;;;5110595;28;20185;-74
2022/11/11 02:59:41;;;;;;;9.40;5.30;;;6.70;99.90;;;;;;5110528;28;20587;-74
2022/11/11 03:02:07;;;;;;;8.10;5.23;;;6.80;99.90;;;;;;5110874;28;20521;-74
2022/11/11 03:04:34;;;;;;;8.20;5.60;;;6.80;99.90;;;;;;5111966;28;20403;-74
2022/11/11 03:06:59;;;;;;;9.20;5.50;;;6.70;99.90;;;;;;5110880;28;20437;-74
2022/11/11 03:09:25;;;;;;;14.70;5.97;;;6.70;99.90;;;;;;5111730;28;20423;-74
2022/11/11 03:11:51;;;;;;;8.27;4.93;;;6.70;99.90;;;;;;5114150;28;20189;-74
2022/11/11 03:14:17;;;;;;;8.50;4.53;;;6.60;99.90;;;;;;5115233;28;20436;-75
2022/11/11 03:19:26;;;;;;;6.30;4.73;;;6.60;99.90;;;;;;5114712;28;20296;-74
2022/11/11 03:21:51;;;;;;;7.57;5.03;;;6.60;99.90;;;;;;5114661;28;20947;-74
2022/11/11 03:24:17;;;;;;;8.90;4.57;;;6.50;99.90;;;;;;5114274;28;20255;-74
2022/11/11 03:26:42;;;;;;;8.50;5.60;;;6.40;99.90;;;;;;5116364;28;20244;-74
2022/11/11 03:29:08;;;;;;;9.90;5.53;;;6.40;99.90;;;;;;5115230;28;20200;-74
2022/11/11 03:31:33;;;;;;;14.27;4.93;;;6.30;99.90;;;;;;5115821;28;20181;-74
2022/11/11 03:34:17;;;;;;;8.27;4.63;;;6.40;99.90;;;;;;5115157;28;20180;-74
2022/11/11 03:39:28;;;;;;;13.90;4.73;;;6.40;99.90;;;;;;5113402;28;20449;-74
2022/11/11 03:41:53;;;;;;;8.53;5.30;;;6.40;99.90;;;;;;5114814;28;20441;-74
2022/11/11 03:44:19;;;;;;;10.40;5.03;;;6.40;99.90;;;;;;5114012;28;20824;-74
2022/11/11 03:46:44;;;;;;;11.03;5.57;;;6.50;99.90;;;;;;5113180;28;20173;-75
2022/11/11 03:49:10;;;;;;;8.03;4.83;;;6.50;99.90;;;;;;5114593;28;20184;-74
2022/11/11 03:51:35;;;;;;;6.03;4.47;;;6.40;99.90;;;;;;5114833;28;20197;-73
2022/11/11 03:54:01;;;;;;;7.43;5.37;;;6.40;99.90;;;;;;5114002;28;20555;-74
2022/11/11 03:56:26;;;;;;;11.10;5.23;;;6.30;99.90;;;;;;5114138;28;20176;-74
2022/11/11 03:58:52;;;;;;;10.03;5.07;;;6.40;99.90;;;;;;5115289;28;20200;-74
2022/11/11 04:12:14;;;;;;;10.60;7.17;;;6.30;99.90;;;;;;5110809;28;20413;-74
2022/11/11 04:17:34;;;;;;;12.17;6.43;;;6.30;99.90;;;;;;5094185;28;20674;-74
2022/11/11 04:22:44;;;;;;;14.33;6.37;;;6.20;99.90;;;;;;5113825;28;20198;-75
2022/11/11 04:30:41;;;;;;;12.03;6.47;;;6.30;99.90;;;;;;5114208;28;20540;-75
2022/11/11 04:33:07;;;;;;;9.83;5.50;;;6.30;99.90;;;;;;5114205;28;20942;-74
2022/11/11 04:35:32;;;;;;;10.03;5.83;;;6.40;99.90;;;;;;5113270;28;20443;-75
2022/11/11 04:41:02;;;;;;;11.70;7.23;;;6.30;99.90;;;;;;5114314;28;20169;-73
2022/11/11 04:41:02;;;;;;;12.03;6.00;;;6.20;99.90;;;;;;5114368;28;20672;-74
2022/11/11 04:43:28;;;;;;;16.20;5.90;;;6.20;99.90;;;;;;5112756;28;20860;-73
2022/11/11 04:46:00;;;;;;;11.63;5.87;;;6.10;99.90;;;;;;5114064;28;20466;-73
2022/11/11 04:48:26;;;;;;;13.60;7.30;;;6.20;99.90;;;;;;5115390;28;20839;-74
2022/11/11 04:50:51;;;;;;;14.57;6.60;;;6.20;99.90;;;;;;5114104;28;20438;-73
2022/11/11 04:53:17;;;;;;;22.30;8.00;;;6.20;99.90;;;;;;5114078;28;20419;-74
2022/11/11 04:58:33;;;;;;;10.93;6.90;;;6.20;99.90;;;;;;5114162;28;20223;-74
2022/11/11 05:00:59;;;;;;;16.37;6.87;;;6.20;99.90;;;;;;5113639;28;20490;-74
2022/11/11 05:03:25;;;;;;;12.67;7.57;;;6.10;99.90;;;;;;5112636;28;20497;-75
2022/11/11 05:09:00;;;;;;;8.77;5.60;;;6.20;99.90;;;;;;5114399;28;20176;-75
2022/11/11 05:11:33;;;;;;;11.90;6.80;;;6.20;99.90;;;;;;5113809;28;20469;-75
2022/11/11 05:22:28;;;;;;;17.80;6.50;;;6.20;99.90;;;;;;5112713;28;20413;-74
2022/11/11 05:27:38;;;;;;;8.87;6.47;;;6.20;99.90;;;;;;5113419;28;20413;-73
2022/11/11 05:30:06;;;;;;;10.53;6.20;;;6.10;99.90;;;;;;5113656;28;20395;-74
2022/11/11 05:32:31;;;;;;;11.07;7.53;;;6.10;99.90;;;;;;5112967;28;20425;-74
2022/11/11 05:34:57;;;;;;;10.33;6.13;;;6.10;99.90;;;;;;5113246;28;20414;-76
2022/11/11 05:37:23;;;;;;;8.57;5.40;;;6.10;99.90;;;;;;5113260;28;20173;-74
2022/11/11 05:39:48;;;;;;;14.03;6.07;;;6.10;99.90;;;;;;5111273;28;20856;-75
2022/11/11 05:42:14;;;;;;;11.13;5.87;;;6.10;99.90;;;;;;5113111;28;20415;-75
2022/11/11 05:44:40;;;;;;;11.00;6.40;;;6.10;99.90;;;;;;5112652;28;20617;-75
2022/11/11 05:47:05;;;;;;;13.23;6.60;;;6.20;99.90;;;;;;5112871;28;20520;-75
2022/11/11 05:49:31;;;;;;;10.50;5.77;;;6.30;99.90;;;;;;5112855;28;20177;-74
2022/11/11 05:51:56;;;;;;;9.43;5.50;;;6.30;99.90;;;;;;5113207;28;20267;-75
2022/11/11 05:54:22;;;;;;;12.07;5.23;;;6.30;99.90;;;;;;5112951;28;20157;-75
2022/11/11 05:56:48;;;;;;;10.10;4.80;;;6.30;99.90;;;;;;5112824;28;20200;-75
2022/11/11 05:59:14;;;;;;;8.20;5.40;;;6.30;99.90;;;;;;5112966;28;20458;-75
2022/11/11 06:01:40;;;;;;;8.37;5.60;;;6.30;99.90;;;;;;5112291;28;20517;-76
2022/11/11 06:04:06;;;;;;;12.13;5.50;;;6.30;99.90;;;;;;5112682;28;20176;-76
2022/11/11 06:06:34;;;;;;;8.43;5.57;;;6.30;99.90;;;;;;5112486;28;20489;-75
2022/11/11 06:09:00;;;;;;;15.50;6.97;;;6.40;99.90;;;;;;5112849;28;20424;-75
2022/11/11 06:11:26;;;;;;;8.00;5.10;;;6.30;99.90;;;;;;5111706;28;20427;-75
2022/11/11 06:13:52;;;;;;;9.73;5.47;;;6.40;99.90;;;;;;5113884;28;20415;-75
2022/11/11 06:16:18;;;;;;;8.53;5.73;;;6.50;99.90;;;;;;5113344;28;20421;-74
2022/11/11 06:18:44;;;;;;;10.70;5.47;;;6.50;99.90;;;;;;5112842;28;20814;-74
2022/11/11 06:21:09;;;;;;;10.10;5.80;;;6.60;99.90;;;;;;5112269;28;20280;-74
2022/11/11 06:23:35;;;;;;;9.53;4.83;;;6.50;99.90;;;;;;5110407;28;20180;-74
2022/11/11 06:26:12;;;;;;;11.80;6.07;;;6.50;99.90;;;;;;5112312;28;20173;-75
2022/11/11 06:28:53;;;;;;;9.13;5.30;;;6.60;99.90;;;;;;5112195;28;20168;-74
2022/11/11 06:31:23;;;;;;;8.93;5.60;;;6.60;99.90;;;;;;5112274;28;20805;-73
2022/11/11 06:33:49;;;;;;;17.73;6.40;;;6.60;99.90;;;;;;5112400;28;20502;-74
2022/11/11 06:36:17;;;;;;;9.27;5.10;;;6.50;99.90;;;;;;5110582;28;20501;-74
2022/11/11 06:38:43;;;;;;;12.53;6.13;;;6.50;99.90;;;;;;5111566;28;20450;-74
2022/11/11 06:41:11;;;;;;;9.80;5.77;;;6.50;99.90;;;;;;5111775;28;20995;-74
2022/11/11 06:43:37;;;;;;;9.20;6.33;;;6.50;99.90;;;;;;5112573;28;20407;-73
2022/11/11 06:46:03;;;;;;;8.97;5.07;;;6.50;99.90;;;;;;5110561;28;20423;-74
2022/11/11 06:48:29;;;;;;;10.57;5.17;;;6.50;99.90;;;;;;5112446;28;20395;-73
2022/11/11 06:51:04;;;;;;;12.17;6.57;;;6.40;99.90;;;;;;5112126;28;20418;-74
2022/11/11 06:53:30;;;;;;;16.40;5.17;;;6.40;99.90;;;;;;5110791;28;20468;-73
2022/11/11 06:55:57;;;;;;;10.90;6.40;;;6.40;99.90;;;;;;5112636;28;20403;-73
2022/11/11 06:58:23;;;;;;;12.13;5.90;;;6.50;99.90;;;;;;5112398;28;20184;-74
2022/11/11 07:00:49;;;;;;;9.43;5.90;;;6.50;99.90;;;;;;5112316;28;20419;-74
2022/11/11 07:03:19;;;;;;;14.47;6.67;;;6.50;99.90;;;;;;5112014;28;20471;-74
2022/11/11 07:05:45;;;;;;;14.40;7.87;;;6.50;99.90;;;;;;5111954;28;20391;-74
2022/11/11 07:08:13;;;;;;;10.93;6.67;;;6.60;99.90;;;;;;5112011;28;20425;-74
2022/11/11 07:10:42;;;;;;;10.97;6.47;;;6.60;99.90;;;;;;5110877;28;20196;-74
2022/11/11 07:13:08;;;;;;;14.63;7.40;;;6.60;99.90;;;;;;5110585;28;20410;-74
2022/11/11 07:15:34;;;;;;;15.47;8.10;;;6.70;99.90;;;;;;5094224;28;20419;-73
2022/11/11 07:18:00;;;;;;;13.50;7.13;;;6.80;99.90;;;;;;5112049;28;20399;-74
2022/11/11 07:20:26;;;;;;;15.63;7.13;;;6.80;99.90;;;;;;5112163;28;20865;-74
2022/11/11 07:22:52;;;;;;;16.90;6.20;;;6.80;99.90;;;;;;5112247;28;20422;-74
2022/11/11 07:25:17;;;;;;;13.33;6.13;;;6.90;99.90;;;;;;5110769;28;20177;-74
2022/11/11 07:27:43;;;;;;;13.17;6.20;;;6.90;99.90;;;;;;5111767;28;20578;-75
2022/11/11 07:30:09;;;;;;;9.20;6.20;;;7.00;99.90;;;;;;5111761;28;20191;-74
2022/11/11 07:32:35;;;;;;;12.03;6.60;;;7.10;99.90;;;;;;5112084;28;20597;-75
2022/11/11 07:35:02;;;;;;;10.13;6.10;;;7.10;99.90;;;;;;5110499;28;20442;-75
2022/11/11 07:37:29;;;;;;;9.60;6.00;;;7.20;99.90;;;;;;5112640;28;20461;-75
2022/11/11 07:39:55;;;;;;;13.33;6.90;;;7.30;99.90;;;;;;5115025;28;20526;-75
2022/11/11 07:42:21;;;;;;;16.53;8.20;;;7.30;99.90;;;;;;5113997;28;20454;-74
2022/11/11 07:44:46;;;;;;;11.67;6.30;;;7.40;99.90;;;;;;5110634;28;20179;-75
2022/11/11 07:47:11;;;;;;;9.43;6.27;;;7.50;99.90;;;;;;5111577;28;20226;-74
2022/11/11 07:49:37;;;;;;;11.63;6.23;;;7.60;99.90;;;;;;5111702;28;20190;-74
2022/11/11 07:52:03;;;;;;;13.00;6.33;;;7.70;99.90;;;;;;5111675;28;20188;-76
2022/11/11 07:54:28;;;;;;;12.40;6.60;;;7.80;99.90;;;;;;5111688;28;20181;-75
2022/11/11 07:56:54;;;;;;;13.07;6.70;;;8.00;99.90;;;;;;5113366;28;20169;-75
2022/11/11 07:59:19;;;;;;;18.37;7.17;;;8.10;99.90;;;;;;5115191;28;20196;-75
2022/11/11 08:01:45;;;;;;;13.50;6.90;;;8.30;99.90;;;;;;5114663;28;20188;-75
2022/11/11 08:04:10;;;;;;;15.50;7.00;;;8.50;99.90;;;;;;5116602;28;20169;-75
2022/11/11 08:06:36;;;;;;;8.77;5.87;;;8.60;99.90;;;;;;5115132;28;20244;-74
2022/11/11 08:09:02;;;;;;;11.40;6.30;;;8.70;99.90;;;;;;5115381;28;20204;-75
2022/11/11 08:14:12;;;;;;;9.00;6.33;;;9.00;99.90;;;;;;5118260;28;20413;-74
2022/11/11 08:16:37;;;;;;;15.83;7.23;;;9.00;99.90;;;;;;5114129;28;20502;-75
2022/11/11 08:19:03;;;;;;;9.90;6.27;;;9.00;99.90;;;;;;5113313;28;20238;-75
2022/11/11 08:21:28;;;;;;;13.23;7.70;;;9.00;99.90;;;;;;5105031;28;20197;-75
2022/11/11 08:23:54;;;;;;;10.20;6.97;;;9.00;99.90;;;;;;5102640;28;20651;-75
2022/11/11 08:26:21;;;;;;;11.00;6.40;;;9.10;99.90;;;;;;5103772;28;20630;-74
2022/11/11 08:28:46;;;;;;;11.20;6.40;;;9.20;99.90;;;;;;5104720;28;20193;-75
2022/11/11 08:31:12;;;;;;;9.90;6.27;;;9.30;99.90;;;;;;5111916;27;20450;-74
2022/11/11 08:33:38;;;;;;;12.57;5.97;;;9.40;99.90;;;;;;5115036;28;20169;-75
2022/11/11 08:36:04;;;;;;;10.33;5.80;;;9.60;99.90;;;;;;5114402;28;20537;-75
2022/11/11 08:38:30;;;;;;;13.27;6.20;;;9.70;99.90;;;;;;5114691;28;20189;-75
2022/11/11 08:40:59;;;;;;;11.00;6.00;;;9.80;99.90;;;;;;5114667;28;20505;-74
2022/11/11 08:43:25;;;;;;;8.97;5.50;;;9.90;99.90;;;;;;5114469;28;20387;-74
2022/11/11 08:45:53;;;;;;;9.30;5.57;;;10.00;99.90;;;;;;5114276;28;20398;-73
2022/11/11 08:48:19;;;;;;;8.80;5.90;;;10.00;99.90;;;;;;5114280;28;20325;-74
2022/11/11 08:50:44;;;;;;;8.03;5.60;;;9.80;99.90;;;;;;5114249;28;20446;-75
2022/11/11 08:53:10;;;;;;;10.47;5.40;;;10.00;99.90;;;;;;5114281;28;20196;-75
2022/11/11 08:55:37;;;;;;;9.50;5.50;;;10.00;99.90;;;;;;5112319;28;20191;-75
2022/11/11 08:58:05;;;;;;;11.40;4.73;;;9.90;99.90;;;;;;5111964;28;20422;-75
2022/11/11 09:00:32;;;;;;;7.67;4.73;;;10.10;99.90;;;;;;5114809;28;20419;-76
2022/11/11 09:03:06;;;;;;;8.60;5.77;;;10.30;99.90;;;;;;5114431;28;20394;-76
2022/11/11 09:05:32;;;;;;;9.87;5.70;;;10.40;99.90;;;;;;5113876;28;20904;-76
2022/11/11 09:08:02;;;;;;;9.57;5.73;;;10.50;99.90;;;;;;5113342;28;20841;-76
2022/11/11 09:10:27;;;;;;;9.03;5.70;;;10.70;99.90;;;;;;5113988;28;20430;-76
2022/11/11 09:12:57;;;;;;;11.40;5.10;;;10.80;99.90;;;;;;5112927;28;20489;-75
2022/11/11 09:15:23;;;;;;;10.30;4.20;;;10.80;99.90;;;;;;5114932;28;20160;-76
2022/11/11 09:17:48;;;;;;;9.87;4.20;;;10.90;99.90;;;;;;5113965;28;20519;-76
2022/11/11 09:20:14;;;;;;;10.27;6.00;;;11.00;99.90;;;;;;5114796;28;20295;-76
2022/11/11 09:22:44;;;;;;;8.77;5.67;;;11.10;99.90;;;;;;5112584;28;20545;-76
2022/11/11 09:25:09;;;;;;;7.43;4.73;;;11.20;99.90;;;;;;5113619;28;20968;-76
2022/11/11 09:27:35;;;;;;;8.20;5.20;;;11.30;99.90;;;;;;5113692;28;20514;-76
2022/11/11 09:30:00;;;;;;;6.37;4.20;;;11.40;99.90;;;;;;5113658;28;20172;-76
2022/11/11 09:32:26;;;;;;;7.80;4.90;;;11.80;99.90;;;;;;5112521;28;20172;-75
2022/11/11 09:34:54;;;;;;;7.97;4.80;;;11.90;99.90;;;;;;5113483;28;20217;-75
2022/11/11 09:37:19;;;;;;;7.63;5.77;;;12.10;99.90;;;;;;5113416;27;20173;-75
2022/11/11 09:39:45;;;;;;;6.23;3.83;;;12.40;99.90;;;;;;5114672;28;20445;-77
2022/11/11 09:42:40;;;;;;;11.77;6.40;;;12.70;99.90;;;;;;5114160;28;20183;-75
2022/11/11 09:45:17;;;;;;;12.63;4.67;;;12.90;99.90;;;;;;5114389;28;20160;-76
2022/11/11 09:48:04;;;;;;;10.63;4.20;;;12.80;99.90;;;;;;5113215;28;20938;-75
2022/11/11 09:50:34;;;;;;;8.47;5.00;;;12.90;99.90;;;;;;5113895;28;20927;-76
2022/11/11 09:53:09;;;;;;;6.67;3.97;;;13.50;99.90;;;;;;5114533;28;20395;-76
2022/11/11 09:55:43;;;;;;;7.27;3.73;;;13.80;99.90;;;;;;5113921;28;20403;-76
2022/11/11 09:58:17;;;;;;;11.77;4.20;;;14.60;99.90;;;;;;5111121;28;20513;-75
2022/11/11 10:00:47;;;;;;;4.87;3.20;;;15.20;99.90;;;;;;5113981;28;20466;-76
2022/11/11 10:03:19;;;;;;;8.73;4.27;;;15.60;99.90;;;;;;5113902;28;20903;-75
2022/11/11 10:05:54;;;;;;;8.60;4.10;;;15.50;99.90;;;;;;5112908;28;20760;-76
2022/11/11 10:08:32;;;;;;;5.83;3.70;;;15.90;99.90;;;;;;5111447;28;20514;-76
2022/11/11 10:10:59;;;;;;;5.77;3.70;;;16.00;99.90;;;;;;5112918;28;20421;-76
2022/11/11 10:13:29;;;;;;;3.40;3.00;;;15.90;99.90;;;;;;5112900;27;20395;-76
2022/11/11 10:16:03;;;;;;;4.00;3.20;;;15.70;99.90;;;;;;5112692;28;20399;-74
2022/11/11 10:18:47;;;;;;;6.00;4.10;;;16.00;99.90;;;;;;5112232;28;20450;-75
2022/11/11 10:21:15;;;;;;;5.80;3.57;;;16.10;99.90;;;;;;5112700;28;20407;-75
2022/11/11 10:23:45;;;;;;;6.03;3.20;;;16.10;99.90;;;;;;5112743;28;20430;-74
2022/11/11 10:26:38;;;;;;;3.47;3.17;;;16.40;99.90;;;;;;5112660;28;20406;-76
2022/11/11 10:29:09;;;;;;;5.00;3.50;;;16.70;99.90;;;;;;5083969;28;20422;-75
2022/11/11 10:31:35;;;;;;;8.50;3.80;;;16.40;99.90;;;;;;5092207;28;20420;-75
2022/11/11 10:34:16;;;;;;;5.57;3.70;;;16.20;99.90;;;;;;5092156;28;20407;-76
2022/11/11 10:36:49;;;;;;;4.67;3.53;;;16.40;99.90;;;;;;5093840;28;20403;-76
2022/11/11 10:39:21;;;;;;;4.93;3.30;;;16.70;99.90;;;;;;5113143;28;20438;-77
2022/11/11 10:41:49;;;;;;;5.40;2.90;;;16.50;99.90;;;;;;5114529;28;20437;-76
2022/11/11 10:44:19;;;;;;;6.80;2.90;;;16.10;99.90;;;;;;5114156;28;20403;-77
2022/11/11 10:46:55;;;;;;;6.03;3.60;;;15.70;99.90;;;;;;5114547;28;20398;-76
2022/11/11 10:49:24;;;;;;;5.77;3.20;;;15.90;99.90;;;;;;5112060;28;20760;-75
2022/11/11 10:52:09;;;;;;;7.63;4.27;;;16.00;99.90;;;;;;5112496;28;20433;-76
2022/11/11 10:54:40;;;;;;;3.70;3.13;;;16.50;99.90;;;;;;5111191;28;20414;-75
2022/11/11 10:57:16;;;;;;;3.67;3.20;;;17.00;99.90;;;;;;5110756;28;20445;-75
2022/11/11 10:59:55;;;;;;;4.50;2.80;;;17.40;99.90;;;;;;5110947;28;20773;-74
2022/11/11 11:02:29;;;;;;;4.07;3.17;;;17.70;99.90;;;;;;5097437;28;20410;-73
2022/11/11 11:05:02;;;;;;;5.50;2.93;;;18.00;99.90;;;;;;5112517;28;20421;-75
2022/11/11 11:07:38;;;;;;;3.80;2.73;;;18.50;99.90;;;;;;5115227;28;20490;-76
2022/11/11 11:10:18;;;;;;;3.13;2.80;;;18.80;99.90;;;;;;5113585;28;20425;-74
2022/11/11 11:13:12;;;;;;;2.63;1.87;;;19.00;99.90;;;;;;5112330;28;20395;-76
2022/11/11 11:15:43;;;;;;;3.67;2.70;;;19.60;99.90;;;;;;5110645;28;20450;-74
2022/11/11 11:18:14;;;;;;;3.47;2.57;;;20.00;98.90;;;;;;5111801;28;20409;-75
2022/11/11 11:21:04;;;;;;;6.27;3.07;;;19.80;96.90;;;;;;5107746;28;20444;-75
2022/11/11 11:23:42;;;;;;;4.47;3.00;;;19.40;96.50;;;;;;5102735;28;20436;-76
2022/11/11 11:26:09;;;;;;;2.30;2.03;;;19.40;97.90;;;;;;5101880;28;20396;-76
2022/11/11 11:28:50;;;;;;;4.77;3.20;;;19.30;97.70;;;;;;5102908;28;20403;-76
2022/11/11 11:31:16;;;;;;;4.33;2.80;;;19.40;97.90;;;;;;5103401;28;20435;-76
2022/11/11 11:33:53;;;;;;;6.13;2.90;;;19.90;96.70;;;;;;5095403;28;20396;-76
2022/11/11 11:36:19;;;;;;;4.20;2.83;;;20.20;96.60;;;;;;5095349;28;20172;-76
2022/11/11 11:38:49;;;;;;;3.50;2.50;;;20.30;95.00;;;;;;5103514;28;20445;-77
2022/11/11 11:41:16;;;;;;;4.07;2.33;;;20.60;95.00;;;;;;5115463;28;20547;-77
2022/11/11 11:43:42;;;;;;;2.03;1.83;;;21.40;94.00;;;;;;5108676;28;20911;-76
2022/11/11 11:46:45;;;;;;;3.67;2.23;;;22.00;91.20;;;;;;5105886;28;20455;-75
2022/11/11 11:49:37;;;;;;;8.93;2.27;;;22.20;87.80;;;;;;5114169;28;20164;-76
2022/11/11 11:52:20;;;;;;;3.70;2.03;;;22.30;84.20;;;;;;5098065;28;20433;-76
2022/11/11 11:54:57;;;;;;;4.37;2.50;;;22.10;80.40;;;;;;5116411;28;20399;-75
2022/11/11 11:57:29;;;;;;;5.20;2.40;;;22.10;81.10;;;;;;5100363;28;20413;-76
2022/11/11 12:00:04;;;;;;;3.83;2.70;;;21.70;83.90;;;;;;5115461;28;20450;-75
2022/11/11 12:02:39;;;;;;;3.90;2.83;;;21.40;87.00;;;;;;5097085;28;20419;-75
2022/11/11 12:05:23;;;;;;;4.40;2.50;;;21.40;87.00;;;;;;5099420;27;20415;-76
2022/11/11 12:08:24;;;;;;;4.97;2.17;;;21.60;85.60;;;;;;5104232;28;20425;-76
2022/11/11 12:11:05;;;;;;;3.10;2.60;;;21.70;83.20;;;;;;5111566;28;20424;-75
2022/11/11 12:13:41;;;;;;;3.83;2.47;;;22.00;81.50;;;;;;5111701;28;20787;-76
2022/11/11 12:16:19;;;;;;;4.00;1.93;;;22.50;83.10;;;;;;5114696;28;20395;-76
2022/11/11 12:19:22;;;;;;;4.30;3.00;;;23.20;79.60;;;;;;5100090;28;20555;-77
2022/11/11 12:21:58;;;;;;;2.70;2.20;;;23.20;74.60;;;;;;5034017;28;20541;-76
2022/11/11 12:24:46;;;;;;;5.00;2.30;;;23.70;75.00;;;;;;5051623;28;20451;-77
2022/11/11 12:27:42;;;;;;;2.90;2.60;;;23.30;71.60;;;;;;5095705;28;20895;-78
2022/11/11 12:30:10;;;;;;;3.67;2.50;;;23.00;71.50;;;;;;5070359;28;20451;-78
2022/11/11 12:33:01;;;;;;;3.47;2.60;;;22.60;70.80;;;;;;5098114;28;20419;-78
2022/11/11 12:35:51;;;;;;;5.80;2.77;;;22.50;72.30;;;;;;5097228;28;20435;-78
2022/11/11 12:39:18;;;;;;;3.37;2.23;;;22.60;73.80;;;;;;5110941;28;20501;-78
2022/11/11 12:42:24;;;;;;;4.87;2.47;;;22.40;71.60;;;;;;5071267;27;20477;-77
2022/11/11 12:44:59;;;;;;;4.00;2.27;;;22.60;73.30;;;;;;5112131;28;20410;-79
2022/11/11 12:47:38;;;;;;;3.00;1.87;;;22.60;72.20;;;;;;5115755;28;20442;-77
2022/11/11 12:50:40;;;;;;;3.17;2.47;;;22.60;71.50;;;;;;5115094;28;20430;-81
2022/11/11 12:53:22;;;;;;;3.13;1.73;;;22.30;72.50;;;;;;5052849;28;20420;-76
2022/11/11 12:56:05;;;;;;;3.03;2.07;;;22.50;73.00;;;;;;5109051;28;20406;-77
2022/11/11 12:58:43;;;;;;;2.47;1.80;;;22.30;72.50;;;;;;5113656;28;20426;-77
2022/11/11 13:01:13;;;;;;;3.43;2.07;;;21.80;73.40;;;;;;5114309;28;20483;-77
2022/11/11 13:03:53;;;;;;;3.03;1.80;;;21.90;74.70;;;;;;5118056;28;20395;-79
2022/11/11 13:06:34;;;;;;;4.13;2.10;;;21.60;75.20;;;;;;5113742;28;20408;-78
2022/11/11 13:09:13;;;;;;;2.07;1.17;;;21.10;75.80;;;;;;5114507;28;20418;-78
2022/11/11 13:12:02;;;;;;;2.63;2.43;;;21.10;77.00;;;;;;5120294;27;20798;-79
2022/11/11 13:15:06;;;;;;;2.73;1.73;;;21.20;77.90;;;;;;5114608;27;20422;-74
2022/11/11 13:17:32;;;;;;;2.17;1.63;;;21.20;78.10;;;;;;5069297;28;20413;-76
2022/11/11 13:20:19;;;;;;;3.53;1.43;;;21.10;77.10;;;;;;5113584;28;20851;-76
2022/11/11 13:22:48;;;;;;;2.40;1.67;;;21.50;77.80;;;;;;5114397;28;20832;-76
2022/11/11 13:25:20;;;;;;;2.73;1.40;;;21.60;76.90;;;;;;5114102;28;20403;-76
2022/11/11 13:28:02;;;;;;;1.70;1.60;;;21.50;75.40;;;;;;5113694;28;20452;-76
2022/11/11 13:31:02;;;;;;;2.33;1.50;;;21.60;75.80;;;;;;5113725;28;20438;-75
2022/11/11 13:33:42;;;;;;;1.87;1.60;;;21.50;75.40;;;;;;5050676;28;21021;-75
2022/11/11 13:36:13;;;;;;;3.40;1.50;;;21.50;75.30;;;;;;5106092;28;20497;-75
2022/11/11 13:38:46;;;;;;;3.33;1.40;;;21.90;77.10;;;;;;5113411;28;20458;-74
2022/11/11 13:41:19;;;;;;;4.87;1.83;;;22.10;77.00;;;;;;5113492;28;20445;-75
2022/11/11 13:43:48;;;;;;;1.90;1.30;;;22.50;76.80;;;;;;5113579;28;20430;-75
2022/11/11 13:46:36;;;;;;;4.30;1.37;;;22.60;76.00;;;;;;5113303;28;20406;-75
2022/11/11 13:49:04;;;;;;;4.10;1.40;;;22.60;73.50;;;;;;5112049;28;20410;-75
2022/11/11 13:51:36;;;;;;;2.57;1.50;;;22.60;73.20;;;;;;5113356;28;20419;-75
2022/11/11 13:54:06;;;;;;;2.37;1.37;;;22.40;74.30;;;;;;5113564;28;21009;-75
2022/11/11 13:56:41;;;;;;;3.10;1.57;;;22.40;73.90;;;;;;5112830;28;20441;-74
2022/11/11 13:59:16;;;;;;;2.57;1.50;;;22.30;72.80;;;;;;5113102;28;20475;-74
2022/11/11 14:01:42;;;;;;;4.70;1.97;;;22.40;73.00;;;;;;5113093;28;20438;-75
2022/11/11 14:04:09;;;;;;;3.87;1.37;;;22.20;73.00;;;;;;5113277;28;20402;-75
2022/11/11 14:06:47;;;;;;;1.70;1.37;;;22.30;71.60;;;;;;5112767;28;20165;-75
2022/11/11 14:10:05;;;;;;;3.13;1.37;;;22.40;73.00;;;;;;5113003;28;20741;-75
2022/11/11 14:12:37;;;;;;;5.03;1.70;;;22.70;72.60;;;;;;5078670;28;20797;-75
2022/11/11 14:15:06;;;;;;;1.50;1.23;;;23.10;70.90;;;;;;5111132;28;20415;-76
2022/11/11 14:17:33;;;;;;;2.53;1.50;;;23.50;70.60;;;;;;5116165;27;20851;-75
2022/11/11 14:20:19;;;;;;;5.20;1.50;;;23.10;68.80;;;;;;5127065;27;20453;-75
2022/11/11 14:22:44;;;;;;;5.10;1.77;;;23.00;68.90;;;;;;5133146;27;20417;-75
2022/11/11 14:25:24;;;;;;;3.23;1.13;;;22.80;68.20;;;;;;5133062;27;20393;-75